Current Weather

Stansted

Stansted, United Kingdom (EGSS)

Report from: Saturday, June 22, 2024 10:50 AM BST
Current time: Saturday, June 22, 2024 11:11 AM BST

Nearby weather – Weather history – Daily summaries
Weather forecast

Present weatherLight rain, recent rain
Temperature16.0°C (60.8°F)
Dew point14.0°C (57.2°F)
Winds 6 kts (3.1 m/s, 6.9 mph) Vrb
Winds variableWinds variable from West-Southwest (240°) to Northwest (310°)
Visibility6.2 mi. (10 km)
Clouds Ceiling: Broken clouds 1,300 ft. (396 m)
Broken clouds 2,000 ft. (610 m)
Overcast 3,900 ft. (1,189 m)
Altimeter29.88 in.Hg (1012 mB)
Relative humidity88 %
Density altitude382 ft. (116 m)
Remarks Fully automated report
Flight conditions Marginal Visual Meteorological Conditions
Raw dataEGSS 220950Z AUTO 28006KT 240V310 9999 -RA BKN013 BKN020 OVC039 16/14 Q1012 RERA REDZ
An error has occurred. This application may no longer respond until reloaded. Reload 🗙